Time;durP1;ratioP1;P1;durP2;ratioP2;P2;SDS_P1;SDS_P2;PMS_P1;PMS_P2;Temp;Humidity;BMP_temperature;BMP_pressure;BME280_temperature;BME280_humidity;BME280_pressure;Samples;Min_cycle;Max_cycle;Signal;HPM_P1;HPM_P2
2023/06/03 07:53:55;;;;;;;8.10;3.40;;;20.40;51.10;;;;;;20941638;28;20565;-70
2023/06/03 08:03:59;;;;;;;12.53;3.50;;;19.70;51.60;;;;;;20963481;28;20203;-62
2023/06/03 08:14:00;;;;;;;8.17;3.50;;;19.80;52.60;;;;;;20899394;28;20219;-63
2023/06/03 08:24:02;;;;;;;8.47;3.70;;;21.60;54.10;;;;;;20941382;28;20560;-66
2023/06/03 08:34:04;;;;;;;14.60;4.00;;;20.30;52.90;;;;;;20873318;28;20211;-70
2023/06/03 08:44:19;;;;;;;9.90;3.67;;;20.50;52.60;;;;;;20897194;28;20210;-79
2023/06/03 08:54:24;;;;;;;8.80;3.57;;;20.60;52.30;;;;;;20895093;28;20311;-71
2023/06/03 09:04:27;;;;;;;6.20;3.70;;;20.90;52.00;;;;;;20842959;28;20224;-72
2023/06/03 09:14:31;;;;;;;6.07;3.23;;;21.10;51.10;;;;;;20839290;28;20208;-68
2023/06/03 09:24:32;;;;;;;6.87;3.40;;;21.20;50.30;;;;;;20837149;28;20224;-74
2023/06/03 09:34:35;;;;;;;6.20;3.27;;;21.30;49.80;;;;;;20837824;28;20739;-71
2023/06/03 09:44:41;;;;;;;6.87;3.20;;;21.50;49.30;;;;;;20835266;28;20723;-75
2023/06/03 09:55:06;;;;;;;7.43;3.23;;;21.70;48.70;;;;;;20832809;28;20211;-73
2023/06/03 10:05:28;;;;;;;12.27;3.07;;;21.80;48.20;;;;;;20838124;28;20241;-75
2023/06/03 10:15:37;;;;;;;10.60;3.87;;;22.00;47.50;;;;;;20834549;28;20216;-74
2023/06/03 10:25:42;;;;;;;7.47;3.30;;;22.10;46.80;;;;;;20832456;28;20251;-77
2023/06/03 10:35:47;;;;;;;8.67;3.30;;;22.30;46.40;;;;;;20835818;28;20204;-70
2023/06/03 10:45:52;;;;;;;11.27;2.90;;;22.50;46.00;;;;;;20832588;28;20267;-76
2023/06/03 10:56:06;;;;;;;7.30;3.30;;;22.70;45.70;;;;;;20831913;28;20201;-74
2023/06/03 11:06:17;;;;;;;12.20;3.47;;;23.00;45.20;;;;;;20830858;28;20240;-64
2023/06/03 11:16:19;;;;;;;5.27;3.77;;;23.20;46.30;;;;;;20828255;28;20291;-67
2023/06/03 11:26:35;;;;;;;8.77;2.80;;;23.30;46.80;;;;;;20830125;28;20319;-65
2023/06/03 11:36:47;;;;;;;9.03;3.77;;;23.60;46.10;;;;;;20830034;28;20287;-64
2023/06/03 11:46:52;;;;;;;5.77;3.27;;;24.00;45.40;;;;;;20827223;28;20236;-62
2023/06/03 11:56:55;;;;;;;6.07;3.30;;;24.20;44.00;;;;;;20828625;28;20215;-68
2023/06/03 12:06:57;;;;;;;9.13;3.40;;;24.40;44.10;;;;;;20828003;28;20718;-64
2023/06/03 12:17:14;;;;;;;6.87;3.20;;;25.00;43.80;;;;;;20828936;28;20240;-73
2023/06/03 12:27:19;;;;;;;8.43;3.30;;;25.40;42.60;;;;;;20828490;28;20232;-70
2023/06/03 12:37:29;;;;;;;7.63;3.33;;;25.50;41.70;;;;;;20837070;28;20296;-73
2023/06/03 12:47:42;;;;;;;5.17;3.37;;;25.50;41.00;;;;;;20841719;28;20240;-68
2023/06/03 12:57:46;;;;;;;5.60;3.10;;;25.50;41.70;;;;;;20841560;28;20243;-67
2023/06/03 13:07:47;;;;;;;4.43;2.90;;;25.60;40.80;;;;;;20840709;28;20606;-68
2023/06/03 13:17:49;;;;;;;4.07;3.00;;;25.60;41.10;;;;;;20840354;28;20209;-63
2023/06/03 13:27:51;;;;;;;7.30;3.13;;;25.60;40.60;;;;;;20861273;28;20279;-62
2023/06/03 13:37:53;;;;;;;10.43;3.10;;;25.80;40.30;;;;;;20889904;28;20231;-65
2023/06/03 13:47:55;;;;;;;6.17;3.23;;;26.00;39.70;;;;;;20853714;28;20746;-75
2023/06/03 13:57:57;;;;;;;8.07;2.93;;;26.10;39.30;;;;;;20843546;28;20200;-76
2023/06/03 14:07:59;;;;;;;7.20;2.87;;;26.40;39.30;;;;;;20918157;28;20232;-71
2023/06/03 14:18:01;;;;;;;9.17;3.57;;;25.90;40.40;;;;;;20916487;28;20674;-70
2023/06/03 14:28:03;;;;;;;4.40;2.80;;;27.50;37.70;;;;;;20834375;28;21282;-76
2023/06/03 14:38:05;;;;;;;11.10;3.60;;;29.10;35.40;;;;;;20843435;28;20204;-66
2023/06/03 14:48:07;;;;;;;6.35;2.78;;;28.30;35.80;;;;;;20832694;28;20247;-60
2023/06/03 14:58:08;;;;;;;10.23;3.20;;;27.60;37.40;;;;;;20832747;28;20861;-60
2023/06/03 15:08:10;;;;;;;3.92;2.80;;;30.40;34.80;;;;;;20831949;28;20601;-59
2023/06/03 15:18:12;;;;;;;4.22;2.65;;;30.10;34.40;;;;;;20830248;28;20217;-61
2023/06/03 15:28:14;;;;;;;6.95;3.15;;;32.80;31.40;;;;;;20830826;28;20232;-63
2023/06/03 15:38:15;;;;;;;3.60;2.67;;;31.70;31.00;;;;;;20886979;28;20306;-62
2023/06/03 15:48:17;;;;;;;8.40;2.95;;;30.80;31.30;;;;;;20911779;28;20240;-62
2023/06/03 15:58:19;;;;;;;5.07;2.60;;;33.80;29.20;;;;;;20912119;28;20208;-64
2023/06/03 16:08:21;;;;;;;3.47;2.40;;;33.80;28.90;;;;;;20915724;28;20236;-63
2023/06/03 16:18:23;;;;;;;4.43;2.33;;;35.90;27.40;;;;;;20927474;28;20680;-66
2023/06/03 16:28:25;;;;;;;7.93;2.75;;;39.70;25.30;;;;;;20927606;28;20586;-63
2023/06/03 16:38:26;;;;;;;2.67;2.47;;;33.40;28.00;;;;;;20867484;28;20656;-63
2023/06/03 16:48:28;;;;;;;5.28;2.83;;;32.50;28.60;;;;;;20842543;28;20240;-67
2023/06/03 16:58:30;;;;;;;5.18;2.65;;;33.20;28.40;;;;;;20842871;28;20208;-67
2023/06/03 17:08:32;;;;;;;6.28;2.60;;;36.20;26.60;;;;;;20841260;28;20232;-66
2023/06/03 17:18:34;;;;;;;4.97;2.40;;;37.70;25.50;;;;;;20840073;28;20687;-67
2023/06/03 17:28:35;;;;;;;4.07;2.47;;;37.90;25.20;;;;;;20840104;28;20236;-68
2023/06/03 17:38:37;;;;;;;4.68;2.53;;;37.50;25.50;;;;;;20898439;28;20559;-70
2023/06/03 17:48:39;;;;;;;5.45;2.15;;;36.70;25.70;;;;;;20920061;28;20330;-66
2023/06/03 17:58:41;;;;;;;5.35;1.88;;;35.80;25.70;;;;;;20921349;28;20693;-71
2023/06/03 18:08:42;;;;;;;4.63;2.15;;;32.60;26.50;;;;;;20928526;28;20331;-72
2023/06/03 18:18:44;;;;;;;2.27;2.07;;;29.30;27.70;;;;;;20916874;28;20212;-68
2023/06/03 18:28:46;;;;;;;9.13;2.37;;;27.30;28.60;;;;;;20916131;28;20240;-68
2023/06/03 18:38:48;;;;;;;4.20;2.20;;;26.00;29.50;;;;;;20853319;28;20292;-69
2023/06/03 18:48:49;;;;;;;3.97;2.47;;;25.10;30.40;;;;;;20830109;28;20703;-65
2023/06/03 18:58:51;;;;;;;10.53;2.63;;;24.50;31.20;;;;;;20832848;28;20212;-63
2023/06/03 19:08:57;;;;;;;4.50;2.10;;;24.00;32.50;;;;;;20831932;28;20244;-60
2023/06/03 19:18:58;;;;;;;4.00;2.40;;;23.50;33.80;;;;;;20831192;28;20201;-70
2023/06/03 19:29:01;;;;;;;5.20;2.47;;;23.10;34.30;;;;;;20830793;28;20992;-63
2023/06/03 19:39:02;;;;;;;6.67;4.07;;;22.70;34.60;;;;;;20891276;28;20215;-66
2023/06/03 19:49:05;;;;;;;6.13;2.70;;;22.40;35.10;;;;;;20909592;28;20714;-65
2023/06/03 19:59:07;;;;;;;4.00;2.30;;;22.10;35.70;;;;;;20910294;28;20253;-63
2023/06/03 20:09:09;;;;;;;7.47;2.40;;;21.80;36.10;;;;;;20909218;28;20624;-64
2023/06/03 20:19:11;;;;;;;4.40;1.97;;;21.40;38.50;;;;;;20907771;28;20207;-64
2023/06/03 20:29:12;;;;;;;7.73;1.93;;;21.30;38.00;;;;;;20911241;28;20240;-60
2023/06/03 20:39:14;;;;;;;7.93;2.47;;;21.10;38.00;;;;;;20845648;28;20201;-61
2023/06/03 20:49:16;;;;;;;5.27;2.13;;;20.90;38.20;;;;;;20828060;28;20243;-67
2023/06/03 20:59:18;;;;;;;4.37;2.30;;;20.60;38.00;;;;;;20842571;28;20211;-63
2023/06/03 21:09:20;;;;;;;5.63;1.60;;;20.60;38.60;;;;;;20841723;28;20238;-66
2023/06/03 21:19:22;;;;;;;9.77;1.73;;;20.30;37.80;;;;;;20856039;28;20333;-65
2023/06/03 21:29:25;;;;;;;2.87;1.50;;;20.10;37.50;;;;;;20840336;28;20253;-63
2023/06/03 21:39:27;;;;;;;5.33;1.50;;;19.90;37.50;;;;;;20905057;28;20211;-60
2023/06/03 21:49:28;;;;;;;9.30;1.80;;;19.80;37.70;;;;;;20920598;28;20248;-68
2023/06/03 21:59:32;;;;;;;2.50;1.50;;;19.60;37.80;;;;;;20920790;28;20660;-69
2023/06/03 22:09:34;;;;;;;4.27;1.53;;;19.40;38.10;;;;;;20919366;28;20655;-66
2023/06/03 22:19:36;;;;;;;4.40;1.50;;;19.30;38.40;;;;;;20918637;28;20300;-71
2023/06/03 22:29:37;;;;;;;3.03;2.00;;;19.20;38.70;;;;;;20917957;28;20229;-71
2023/06/03 22:39:39;;;;;;;4.80;1.63;;;19.00;39.10;;;;;;20848278;28;20759;-71
2023/06/03 22:49:41;;;;;;;4.67;2.20;;;18.80;39.50;;;;;;20833472;28;20246;-61
2023/06/03 22:59:42;;;;;;;2.50;1.53;;;18.60;39.80;;;;;;20833291;28;20609;-69
2023/06/03 23:09:44;;;;;;;5.93;1.70;;;18.40;40.30;;;;;;20832227;28;20229;-68
2023/06/03 23:19:46;;;;;;;2.37;1.50;;;18.20;40.70;;;;;;20831734;28;20259;-65
2023/06/03 23:29:48;;;;;;;4.97;1.60;;;18.00;41.00;;;;;;20831750;28;20236;-66
2023/06/03 23:39:50;;;;;;;5.60;1.70;;;18.00;41.20;;;;;;20900976;28;20204;-69
2023/06/03 23:49:51;;;;;;;2.50;1.60;;;17.80;41.50;;;;;;20917539;28;20247;-70
2023/06/03 23:59:54;;;;;;;6.07;1.70;;;17.60;41.80;;;;;;20912975;28;20234;-66
